Time;durP1;ratioP1;P1;durP2;ratioP2;P2;SDS_P1;SDS_P2;PMS_P1;PMS_P2;Temp;Humidity;BMP_temperature;BMP_pressure;BME280_temperature;BME280_humidity;BME280_pressure;Samples;Min_cycle;Max_cycle;Signal;HPM_P1;HPM_P2
2021/01/07 00:00:44;;;;;;;16.53;9.90;;;;;;;;;;5071097;28;20899;-48
2021/01/07 00:03:10;;;;;;;17.10;10.03;;;;;;;;;;5071041;28;20732;-48
2021/01/07 00:05:37;;;;;;;21.15;11.65;;;;;;;;;;5070356;28;20544;-48
2021/01/07 00:08:03;;;;;;;18.25;9.30;;;;;;;;;;5071054;28;20174;-53
2021/01/07 00:10:29;;;;;;;16.45;10.85;;;;;;;;;;5070109;28;20214;-50
2021/01/07 00:12:55;;;;;;;17.07;11.03;;;;;;;;;;5070826;28;20197;-50
2021/01/07 00:15:21;;;;;;;19.17;11.00;;;;;;;;;;5069240;28;20467;-51
2021/01/07 00:17:47;;;;;;;20.87;10.33;;;;;;;;;;5070783;28;20938;-48
2021/01/07 00:20:13;;;;;;;19.90;10.57;;;;;;;;;;5070510;28;20404;-48
2021/01/07 00:22:39;;;;;;;20.02;9.93;;;;;;;;;;5070700;28;20431;-49
2021/01/07 00:25:06;;;;;;;14.77;9.48;;;;;;;;;;5070616;28;20288;-53
2021/01/07 00:27:33;;;;;;;14.95;9.23;;;;;;;;;;5070365;28;20162;-51
2021/01/07 00:29:59;;;;;;;16.17;9.38;;;;;;;;;;5070657;28;20173;-48
2021/01/07 00:32:25;;;;;;;12.98;8.77;;;;;;;;;;5070430;28;20195;-48
2021/01/07 00:34:51;;;;;;;19.50;10.00;;;;;;;;;;5070463;28;20197;-48
2021/01/07 00:37:17;;;;;;;14.10;9.18;;;;;;;;;;5070174;28;20892;-47
2021/01/07 00:39:43;;;;;;;17.10;9.77;;;;;;;;;;5070527;28;20166;-48
2021/01/07 00:42:09;;;;;;;17.57;9.50;;;;;;;;;;5073464;28;20189;-48
2021/01/07 00:44:35;;;;;;;19.05;10.63;;;;;;;;;;5074314;28;20816;-48
2021/01/07 00:47:01;;;;;;;16.15;10.50;;;;;;;;;;5074034;28;20170;-49
2021/01/07 00:49:27;;;;;;;18.73;10.95;;;;;;;;;;5074420;28;20172;-48
2021/01/07 00:51:53;;;;;;;20.33;11.70;;;;;;;;;;5074407;28;20162;-49
2021/01/07 00:54:22;;;;;;;17.47;11.23;;;;;;;;;;5074279;28;20477;-50
2021/01/07 00:56:48;;;;;;;17.98;10.85;;;;;;;;;;5074018;28;20424;-51
2021/01/07 00:59:14;;;;;;;16.70;9.90;;;;;;;;;;5074173;28;20197;-48
2021/01/07 01:01:49;;;;;;;15.77;9.73;;;;;;;;;;5074259;28;20463;-49
2021/01/07 01:04:16;;;;;;;18.70;11.18;;;;;;;;;;5073955;28;20284;-48
2021/01/07 01:06:43;;;;;;;17.23;11.05;;;;;;;;;;5073919;28;20174;-51
2021/01/07 01:09:10;;;;;;;15.77;10.40;;;;;;;;;;5074068;28;20171;-48
2021/01/07 01:11:40;;;;;;;17.85;10.65;;;;;;;;;;5072508;28;20549;-50
2021/01/07 01:14:06;;;;;;;23.83;12.57;;;;;;;;;;5073632;28;20247;-48
2021/01/07 01:16:32;;;;;;;18.98;10.60;;;;;;;;;;5073666;28;20170;-48
2021/01/07 01:18:58;;;;;;;21.70;12.70;;;;;;;;;;5073966;28;20830;-48
2021/01/07 01:21:24;;;;;;;33.22;13.85;;;;;;;;;;5073706;28;20412;-48
2021/01/07 01:23:50;;;;;;;22.70;11.90;;;;;;;;;;5073704;28;20176;-48
2021/01/07 01:26:19;;;;;;;23.60;12.13;;;;;;;;;;5073462;28;20167;-48
2021/01/07 01:28:45;;;;;;;32.42;16.35;;;;;;;;;;5073583;28;20406;-50
2021/01/07 01:31:11;;;;;;;31.20;15.43;;;;;;;;;;5073556;28;20648;-50
2021/01/07 01:33:38;;;;;;;27.02;14.55;;;;;;;;;;5073587;28;20522;-49
2021/01/07 01:36:04;;;;;;;26.75;13.80;;;;;;;;;;5073169;28;20186;-48
2021/01/07 01:38:30;;;;;;;26.55;15.52;;;;;;;;;;5073616;28;20665;-48
2021/01/07 01:41:14;;;;;;;29.87;14.30;;;;;;;;;;5073475;28;20172;-48
2021/01/07 01:43:40;;;;;;;26.02;14.75;;;;;;;;;;5055172;28;20532;-48
2021/01/07 01:46:06;;;;;;;26.63;15.20;;;;;;;;;;5073156;28;20254;-48
2021/01/07 01:48:32;;;;;;;26.70;16.30;;;;;;;;;;5073396;28;20396;-49
2021/01/07 01:50:59;;;;;;;22.48;13.10;;;;;;;;;;5073438;28;20403;-48
2021/01/07 01:53:25;;;;;;;25.98;13.55;;;;;;;;;;5073177;28;20162;-48
2021/01/07 01:55:51;;;;;;;24.10;12.93;;;;;;;;;;5072873;28;20240;-48
2021/01/07 01:58:17;;;;;;;19.40;12.30;;;;;;;;;;5073032;28;20763;-48
2021/01/07 02:00:43;;;;;;;19.83;11.60;;;;;;;;;;5072841;28;20585;-48
2021/01/07 02:03:10;;;;;;;17.53;10.37;;;;;;;;;;5072475;28;20173;-48
2021/01/07 02:05:36;;;;;;;17.88;10.23;;;;;;;;;;5072051;28;20478;-50
2021/01/07 02:08:03;;;;;;;19.48;11.32;;;;;;;;;;5072753;28;20159;-52
2021/01/07 02:10:30;;;;;;;18.52;10.93;;;;;;;;;;5071976;28;20162;-48
2021/01/07 02:12:56;;;;;;;21.50;11.65;;;;;;;;;;5072874;28;20224;-49
2021/01/07 02:15:22;;;;;;;20.90;10.67;;;;;;;;;;5072186;28;20210;-49
2021/01/07 02:17:48;;;;;;;21.13;11.48;;;;;;;;;;5072878;28;20978;-48
2021/01/07 02:20:15;;;;;;;18.08;10.73;;;;;;;;;;5072607;28;20173;-48
2021/01/07 02:22:42;;;;;;;20.13;11.48;;;;;;;;;;5072751;28;20202;-48
2021/01/07 02:25:09;;;;;;;19.77;12.18;;;;;;;;;;5072355;28;20201;-48
2021/01/07 02:27:35;;;;;;;26.45;14.13;;;;;;;;;;5072327;28;20649;-48
2021/01/07 02:30:01;;;;;;;22.67;13.70;;;;;;;;;;5072446;28;20168;-50
2021/01/07 02:32:28;;;;;;;24.63;12.70;;;;;;;;;;5072531;28;20462;-51
2021/01/07 02:34:54;;;;;;;22.23;11.80;;;;;;;;;;5072293;28;20425;-51
2021/01/07 02:37:20;;;;;;;28.83;13.37;;;;;;;;;;5072179;28;20176;-51
2021/01/07 02:39:46;;;;;;;28.03;15.20;;;;;;;;;;5072342;28;20899;-51
2021/01/07 02:42:12;;;;;;;23.40;12.73;;;;;;;;;;5071293;28;20829;-48
2021/01/07 02:44:38;;;;;;;32.83;17.63;;;;;;;;;;5072163;28;20461;-48
2021/01/07 02:47:05;;;;;;;28.63;16.23;;;;;;;;;;5071805;28;20165;-49
2021/01/07 02:49:31;;;;;;;31.70;15.75;;;;;;;;;;5072446;28;20760;-49
2021/01/07 02:51:57;;;;;;;31.53;17.67;;;;;;;;;;5072089;28;20166;-51
2021/01/07 02:54:23;;;;;;;33.33;17.60;;;;;;;;;;5071991;28;20829;-51
2021/01/07 02:56:49;;;;;;;32.92;16.92;;;;;;;;;;5071647;28;20501;-51
2021/01/07 02:59:43;;;;;;;32.07;16.73;;;;;;;;;;5072012;28;20206;-52
2021/01/07 03:02:09;;;;;;;31.00;15.93;;;;;;;;;;5071200;28;20476;-51
2021/01/07 03:04:35;;;;;;;27.00;14.67;;;;;;;;;;5071437;28;20293;-51
2021/01/07 03:07:00;;;;;;;26.53;16.80;;;;;;;;;;5071617;28;20917;-48
2021/01/07 03:09:26;;;;;;;26.67;16.13;;;;;;;;;;5071699;28;20407;-48
2021/01/07 03:11:52;;;;;;;30.00;15.30;;;;;;;;;;5071452;28;20482;-48
2021/01/07 03:16:59;;;;;;;26.55;15.63;;;;;;;;;;5048009;28;20457;-52
2021/01/07 03:19:25;;;;;;;29.33;16.10;;;;;;;;;;5051173;28;20670;-55
2021/01/07 03:21:51;;;;;;;29.13;15.90;;;;;;;;;;5051749;28;20173;-51
2021/01/07 03:24:17;;;;;;;31.27;15.87;;;;;;;;;;5051820;28;20531;-52
2021/01/07 03:26:43;;;;;;;28.83;17.40;;;;;;;;;;5050593;28;20491;-51
2021/01/07 03:29:09;;;;;;;28.57;16.40;;;;;;;;;;5051470;28;20895;-52
2021/01/07 03:31:35;;;;;;;35.20;17.90;;;;;;;;;;5051646;28;20946;-51
2021/01/07 03:34:01;;;;;;;31.03;17.07;;;;;;;;;;5051495;28;20405;-51
2021/01/07 03:36:27;;;;;;;29.90;17.50;;;;;;;;;;5050994;28;20425;-52
2021/01/07 03:38:52;;;;;;;28.63;18.07;;;;;;;;;;5033576;28;20413;-52
2021/01/07 03:41:18;;;;;;;30.40;18.47;;;;;;;;;;5051134;28;20410;-52
2021/01/07 03:43:44;;;;;;;34.40;21.23;;;;;;;;;;5051446;28;20413;-54
2021/01/07 03:46:11;;;;;;;35.20;20.00;;;;;;;;;;5050138;28;20253;-56
2021/01/07 03:48:37;;;;;;;37.45;21.00;;;;;;;;;;5051176;28;20473;-54
2021/01/07 03:51:03;;;;;;;38.57;21.13;;;;;;;;;;5051027;28;20764;-55
2021/01/07 03:53:29;;;;;;;38.88;20.67;;;;;;;;;;5051019;28;20759;-56
2021/01/07 03:55:55;;;;;;;37.40;20.10;;;;;;;;;;5050666;28;20193;-55
2021/01/07 03:58:20;;;;;;;39.57;21.87;;;;;;;;;;5050786;28;20412;-53
2021/01/07 04:00:46;;;;;;;38.77;21.37;;;;;;;;;;5050942;28;20412;-54
2021/01/07 04:03:12;;;;;;;42.83;22.03;;;;;;;;;;5050786;28;20406;-54
2021/01/07 04:05:38;;;;;;;47.80;22.27;;;;;;;;;;5050582;28;20465;-54
2021/01/07 04:08:04;;;;;;;37.87;20.93;;;;;;;;;;5050760;28;20893;-51
2021/01/07 04:10:30;;;;;;;43.88;21.90;;;;;;;;;;5050832;28;20920;-51
2021/01/07 04:12:56;;;;;;;38.27;21.70;;;;;;;;;;5049944;28;20174;-51
2021/01/07 04:15:22;;;;;;;44.20;23.07;;;;;;;;;;5049577;28;20441;-51
2021/01/07 04:17:48;;;;;;;42.90;20.97;;;;;;;;;;5050587;28;20404;-52
2021/01/07 04:20:14;;;;;;;39.20;23.17;;;;;;;;;;5050772;28;20414;-52
2021/01/07 04:22:40;;;;;;;52.07;24.77;;;;;;;;;;5050742;28;20889;-53
2021/01/07 04:25:07;;;;;;;44.50;23.60;;;;;;;;;;5050294;28;20453;-51
2021/01/07 04:27:33;;;;;;;48.10;25.00;;;;;;;;;;5050334;28;20622;-55
2021/01/07 04:29:59;;;;;;;45.70;24.20;;;;;;;;;;5050486;28;20159;-51
2021/01/07 04:32:25;;;;;;;50.53;24.57;;;;;;;;;;5050602;28;20172;-52
2021/01/07 04:34:51;;;;;;;52.80;26.83;;;;;;;;;;5050317;28;20426;-51
2021/01/07 04:37:17;;;;;;;53.95;26.15;;;;;;;;;;5050362;28;20402;-52
2021/01/07 04:39:43;;;;;;;53.07;26.07;;;;;;;;;;5050368;28;20193;-52
2021/01/07 04:42:09;;;;;;;58.00;28.50;;;;;;;;;;5049954;28;20433;-53
2021/01/07 04:44:36;;;;;;;50.92;26.65;;;;;;;;;;5050191;28;20483;-53
2021/01/07 04:47:03;;;;;;;60.88;26.63;;;;;;;;;;5050245;28;20167;-51
2021/01/07 04:49:29;;;;;;;53.65;27.10;;;;;;;;;;5050444;28;20221;-55
2021/01/07 04:51:56;;;;;;;54.15;27.10;;;;;;;;;;5050247;28;20171;-52
2021/01/07 04:54:22;;;;;;;46.70;26.40;;;;;;;;;;5050287;28;20221;-52
2021/01/07 04:56:49;;;;;;;52.53;26.25;;;;;;;;;;5032125;28;20175;-51
2021/01/07 04:59:15;;;;;;;54.22;27.02;;;;;;;;;;5050363;28;20262;-51
2021/01/07 05:01:41;;;;;;;49.17;25.95;;;;;;;;;;5050220;28;20638;-51
2021/01/07 05:04:09;;;;;;;50.63;26.70;;;;;;;;;;5050322;28;20194;-52
2021/01/07 05:06:35;;;;;;;52.40;25.55;;;;;;;;;;5049857;28;20563;-51
2021/01/07 05:09:01;;;;;;;46.80;25.52;;;;;;;;;;5050257;28;20167;-52
2021/01/07 05:11:28;;;;;;;48.55;26.13;;;;;;;;;;5049724;28;20174;-56
2021/01/07 05:14:00;;;;;;;51.17;27.35;;;;;;;;;;5049616;28;20213;-52
2021/01/07 05:16:26;;;;;;;46.42;25.30;;;;;;;;;;5049831;28;20316;-55
2021/01/07 05:18:52;;;;;;;46.08;25.42;;;;;;;;;;5050048;28;20174;-56
2021/01/07 05:21:20;;;;;;;42.25;24.17;;;;;;;;;;5050158;28;20220;-54
2021/01/07 05:23:47;;;;;;;53.67;28.88;;;;;;;;;;5049918;28;20160;-56
2021/01/07 05:26:17;;;;;;;38.42;23.25;;;;;;;;;;5050502;28;20305;-52
2021/01/07 05:28:43;;;;;;;49.33;26.42;;;;;;;;;;5053744;28;20169;-51
2021/01/07 05:31:09;;;;;;;43.78;24.77;;;;;;;;;;5053790;28;20649;-52
2021/01/07 05:33:37;;;;;;;39.42;23.10;;;;;;;;;;5053609;28;20159;-51
2021/01/07 05:36:16;;;;;;;43.08;23.23;;;;;;;;;;5053453;28;20616;-52
2021/01/07 05:38:42;;;;;;;50.55;25.45;;;;;;;;;;5053693;28;20254;-52
2021/01/07 05:41:12;;;;;;;40.80;23.13;;;;;;;;;;5052880;28;20254;-51
2021/01/07 05:43:38;;;;;;;49.88;24.42;;;;;;;;;;5053696;28;20885;-52
2021/01/07 05:46:06;;;;;;;43.53;23.40;;;;;;;;;;5053187;28;20209;-51
2021/01/07 05:48:33;;;;;;;42.85;23.88;;;;;;;;;;5053687;28;20175;-51
2021/01/07 05:51:03;;;;;;;50.45;24.88;;;;;;;;;;5053628;28;20168;-52
2021/01/07 05:53:29;;;;;;;41.33;24.27;;;;;;;;;;5053740;28;20175;-51
2021/01/07 05:55:56;;;;;;;42.22;24.50;;;;;;;;;;5052978;28;20210;-56
2021/01/07 05:58:23;;;;;;;42.50;23.05;;;;;;;;;;5053229;28;20172;-55
2021/01/07 06:00:50;;;;;;;42.42;22.02;;;;;;;;;;5053076;28;20642;-50
2021/01/07 06:03:19;;;;;;;47.55;25.35;;;;;;;;;;5053117;28;20168;-52
2021/01/07 06:05:46;;;;;;;47.75;23.63;;;;;;;;;;5052736;28;20205;-52
2021/01/07 06:08:16;;;;;;;45.35;23.83;;;;;;;;;;5052847;28;20171;-55
2021/01/07 06:10:43;;;;;;;49.72;24.30;;;;;;;;;;5053007;28;20208;-55
2021/01/07 06:13:09;;;;;;;43.17;23.58;;;;;;;;;;5052293;28;20175;-51
2021/01/07 06:15:36;;;;;;;46.75;24.40;;;;;;;;;;5052505;28;20230;-52
2021/01/07 06:18:03;;;;;;;46.90;24.08;;;;;;;;;;5052681;28;20181;-55
2021/01/07 06:20:32;;;;;;;42.78;23.75;;;;;;;;;;5052862;28;20687;-55
2021/01/07 06:22:58;;;;;;;45.15;24.60;;;;;;;;;;5052647;28;20251;-55
2021/01/07 06:25:24;;;;;;;44.13;24.03;;;;;;;;;;5052413;28;20304;-55
2021/01/07 06:27:51;;;;;;;50.67;24.27;;;;;;;;;;5052533;28;20417;-53
2021/01/07 06:30:17;;;;;;;42.78;22.63;;;;;;;;;;5052597;28;20241;-55
2021/01/07 06:32:47;;;;;;;44.10;22.23;;;;;;;;;;5052466;28;20266;-55
2021/01/07 06:35:16;;;;;;;43.55;22.35;;;;;;;;;;5052273;28;20439;-58
2021/01/07 06:37:43;;;;;;;54.42;25.15;;;;;;;;;;5051800;28;20175;-55
2021/01/07 06:40:11;;;;;;;48.28;22.52;;;;;;;;;;5052147;28;20221;-54
2021/01/07 06:42:38;;;;;;;46.42;24.00;;;;;;;;;;5051824;28;20766;-52
2021/01/07 06:45:04;;;;;;;44.50;22.75;;;;;;;;;;5051857;28;20207;-53
2021/01/07 06:47:31;;;;;;;46.30;21.48;;;;;;;;;;5052023;28;20228;-53
2021/01/07 06:49:58;;;;;;;38.42;21.45;;;;;;;;;;5052119;28;20174;-51
2021/01/07 06:52:25;;;;;;;40.05;21.73;;;;;;;;;;5052239;28;20166;-56
2021/01/07 06:54:54;;;;;;;39.38;22.33;;;;;;;;;;5051739;28;20685;-52
2021/01/07 06:57:21;;;;;;;42.58;21.52;;;;;;;;;;5050908;28;20164;-52
2021/01/07 06:59:54;;;;;;;38.30;19.17;;;;;;;;;;5051671;28;20171;-53
2021/01/07 07:02:20;;;;;;;32.45;19.20;;;;;;;;;;5051863;28;20631;-51
2021/01/07 07:04:47;;;;;;;37.65;21.02;;;;;;;;;;5051773;28;20203;-51
2021/01/07 07:07:15;;;;;;;36.45;20.75;;;;;;;;;;5051523;28;20250;-52
2021/01/07 07:09:42;;;;;;;37.20;21.23;;;;;;;;;;5051864;28;20206;-51
2021/01/07 07:12:08;;;;;;;37.00;20.05;;;;;;;;;;5051123;28;20174;-51
2021/01/07 07:14:34;;;;;;;33.30;19.48;;;;;;;;;;5051702;28;20198;-51
2021/01/07 07:17:07;;;;;;;41.42;20.63;;;;;;;;;;5051508;28;20261;-51
2021/01/07 07:19:36;;;;;;;32.88;18.13;;;;;;;;;;5051733;28;20695;-57
2021/01/07 07:22:02;;;;;;;31.73;18.83;;;;;;;;;;5051530;28;20162;-51
2021/01/07 07:24:36;;;;;;;33.08;20.08;;;;;;;;;;5051514;28;20261;-52
2021/01/07 07:27:03;;;;;;;34.40;19.48;;;;;;;;;;5051397;28;20653;-53
2021/01/07 07:29:32;;;;;;;30.25;18.20;;;;;;;;;;5051584;28;20601;-58
2021/01/07 07:31:58;;;;;;;29.65;17.95;;;;;;;;;;5052049;28;20700;-52
2021/01/07 07:34:30;;;;;;;37.42;19.98;;;;;;;;;;5070758;28;20179;-51
2021/01/07 07:36:56;;;;;;;32.33;17.15;;;;;;;;;;5071086;28;20162;-57
2021/01/07 07:39:26;;;;;;;30.67;17.85;;;;;;;;;;5071069;28;20174;-56
2021/01/07 07:42:06;;;;;;;32.30;17.40;;;;;;;;;;5056201;28;20182;-54
2021/01/07 07:44:32;;;;;;;32.03;17.85;;;;;;;;;;5051123;28;20551;-56
2021/01/07 07:46:58;;;;;;;37.30;19.08;;;;;;;;;;5050953;28;20170;-56
2021/01/07 07:49:24;;;;;;;33.20;17.80;;;;;;;;;;5050807;28;20649;-54
2021/01/07 07:51:53;;;;;;;32.43;18.43;;;;;;;;;;5051091;28;20167;-54
2021/01/07 07:54:19;;;;;;;24.50;15.82;;;;;;;;;;5049762;28;20778;-51
2021/01/07 07:56:45;;;;;;;28.63;16.13;;;;;;;;;;5050249;28;20191;-51
2021/01/07 07:59:12;;;;;;;35.10;18.05;;;;;;;;;;5050713;28;20166;-52
2021/01/07 08:01:45;;;;;;;29.65;16.23;;;;;;;;;;5050979;28;20173;-52
2021/01/07 08:04:12;;;;;;;34.53;17.15;;;;;;;;;;5050785;28;20262;-55
2021/01/07 08:06:37;;;;;;;25.10;15.10;;;;;;;;;;5050494;28;20684;-51
2021/01/07 08:09:05;;;;;;;30.57;16.80;;;;;;;;;;5050848;28;20170;-52
2021/01/07 08:11:31;;;;;;;32.40;18.50;;;;;;;;;;5049481;28;20956;-52
2021/01/07 08:13:58;;;;;;;36.08;18.98;;;;;;;;;;5050014;28;20225;-55
2021/01/07 08:16:25;;;;;;;37.17;20.88;;;;;;;;;;5050326;28;20297;-52
2021/01/07 08:18:51;;;;;;;34.20;19.60;;;;;;;;;;5050498;28;20178;-53
2021/01/07 08:21:17;;;;;;;33.63;17.40;;;;;;;;;;5050754;28;20840;-51
2021/01/07 08:23:43;;;;;;;30.83;15.93;;;;;;;;;;5050473;28;20421;-52
2021/01/07 08:26:13;;;;;;;24.63;15.80;;;;;;;;;;5050339;28;20461;-52
2021/01/07 08:28:40;;;;;;;28.83;14.27;;;;;;;;;;5050538;28;20808;-54
2021/01/07 08:31:07;;;;;;;24.58;14.82;;;;;;;;;;5050675;28;20159;-52
2021/01/07 08:33:33;;;;;;;23.33;13.93;;;;;;;;;;5050399;28;20174;-56
2021/01/07 08:36:09;;;;;;;23.17;13.30;;;;;;;;;;5050265;28;20187;-52
2021/01/07 08:38:36;;;;;;;25.10;14.25;;;;;;;;;;5050550;28;20253;-56
2021/01/07 08:41:13;;;;;;;23.52;13.13;;;;;;;;;;5049738;28;20164;-52
2021/01/07 08:43:39;;;;;;;24.35;12.85;;;;;;;;;;5030535;28;20168;-52
2021/01/07 08:46:14;;;;;;;19.70;11.88;;;;;;;;;;5030041;28;20203;-55
2021/01/07 08:48:40;;;;;;;22.52;12.63;;;;;;;;;;5030601;28;20202;-51
2021/01/07 08:51:19;;;;;;;18.10;12.10;;;;;;;;;;5030442;28;20172;-51
2021/01/07 08:53:52;;;;;;;19.45;11.07;;;;;;;;;;5030630;28;20583;-55
2021/01/07 08:56:34;;;;;;;20.27;12.15;;;;;;;;;;5030049;28;20184;-53
2021/01/07 08:59:38;;;;;;;18.67;11.77;;;;;;;;;;5030539;28;20639;-52
2021/01/07 09:02:06;;;;;;;21.88;12.10;;;;;;;;;;4990371;28;20710;-53
2021/01/07 09:04:36;;;;;;;17.98;10.77;;;;;;;;;;5027143;28;20217;-52
2021/01/07 09:07:08;;;;;;;22.42;11.55;;;;;;;;;;5034004;28;20619;-53
2021/01/07 09:09:54;;;;;;;18.73;11.35;;;;;;;;;;5034317;28;20170;-52
2021/01/07 09:12:30;;;;;;;19.35;11.10;;;;;;;;;;5042045;28;20185;-55
2021/01/07 09:14:56;;;;;;;23.17;12.75;;;;;;;;;;5053876;28;20200;-52
2021/01/07 09:17:38;;;;;;;19.27;11.53;;;;;;;;;;5118835;22;20303;-51
2021/01/07 09:20:06;;;;;;;19.00;11.43;;;;;;;;;;5094633;28;20399;-51
2021/01/07 09:22:32;;;;;;;21.98;10.35;;;;;;;;;;5094514;28;20193;-49
2021/01/07 09:24:59;;;;;;;19.13;11.23;;;;;;;;;;5094357;28;20229;-52
2021/01/07 09:27:25;;;;;;;19.23;11.25;;;;;;;;;;5109913;28;20426;-52
2021/01/07 09:29:51;;;;;;;20.37;11.80;;;;;;;;;;5114604;28;20166;-52
2021/01/07 09:32:18;;;;;;;16.55;9.68;;;;;;;;;;5110321;28;20449;-51
2021/01/07 09:34:44;;;;;;;17.20;10.23;;;;;;;;;;5114356;28;20205;-52
2021/01/07 09:37:18;;;;;;;15.60;9.70;;;;;;;;;;5114062;28;20195;-49
2021/01/07 09:39:45;;;;;;;13.88;9.25;;;;;;;;;;5114243;28;20245;-51
2021/01/07 09:42:11;;;;;;;15.90;9.00;;;;;;;;;;5114254;28;20169;-51
2021/01/07 09:44:37;;;;;;;13.90;9.43;;;;;;;;;;5113987;28;20531;-51
2021/01/07 09:47:04;;;;;;;13.70;8.63;;;;;;;;;;5113685;28;20185;-51
2021/01/07 09:49:31;;;;;;;13.23;8.80;;;;;;;;;;5113943;28;20176;-51
2021/01/07 09:51:57;;;;;;;11.65;8.30;;;;;;;;;;5110372;28;20162;-51
2021/01/07 09:54:23;;;;;;;10.50;7.85;;;;;;;;;;5113032;28;20184;-50
2021/01/07 09:56:50;;;;;;;10.95;7.85;;;;;;;;;;5101029;28;20706;-51
2021/01/07 09:59:16;;;;;;;13.80;9.60;;;;;;;;;;5093395;28;20531;-51
2021/01/07 10:01:42;;;;;;;15.67;9.00;;;;;;;;;;5093224;28;20181;-52
2021/01/07 10:04:08;;;;;;;14.53;10.10;;;;;;;;;;5093282;28;20411;-51
2021/01/07 10:06:34;;;;;;;16.40;11.10;;;;;;;;;;5092862;28;20456;-52
2021/01/07 10:09:00;;;;;;;15.70;9.70;;;;;;;;;;5093233;28;20407;-50
2021/01/07 10:11:26;;;;;;;17.60;11.90;;;;;;;;;;5093017;28;20397;-50
2021/01/07 10:13:52;;;;;;;17.80;11.55;;;;;;;;;;5091852;28;20398;-50
2021/01/07 10:16:18;;;;;;;19.47;12.60;;;;;;;;;;5092526;28;20685;-50
2021/01/07 10:18:44;;;;;;;18.13;11.13;;;;;;;;;;5096708;28;20427;-50
2021/01/07 10:21:13;;;;;;;16.75;10.35;;;;;;;;;;5113363;28;20215;-50
2021/01/07 10:23:43;;;;;;;18.67;11.07;;;;;;;;;;5113267;28;20177;-51
2021/01/07 10:26:10;;;;;;;19.95;11.23;;;;;;;;;;5112963;28;20196;-50
2021/01/07 10:28:37;;;;;;;18.65;11.20;;;;;;;;;;5112942;28;20166;-50
2021/01/07 10:31:03;;;;;;;18.38;10.80;;;;;;;;;;5113154;28;20187;-49
2021/01/07 10:33:33;;;;;;;19.63;11.50;;;;;;;;;;5112948;28;20157;-50
2021/01/07 10:36:00;;;;;;;19.08;11.63;;;;;;;;;;5112777;28;20205;-51
2021/01/07 10:38:26;;;;;;;17.75;10.45;;;;;;;;;;5113060;28;20174;-50
2021/01/07 10:40:52;;;;;;;14.88;9.98;;;;;;;;;;5112896;28;20192;-49
2021/01/07 10:43:22;;;;;;;17.35;10.18;;;;;;;;;;5112837;28;20174;-51
2021/01/07 10:45:52;;;;;;;18.88;10.68;;;;;;;;;;5098375;28;20204;-50
2021/01/07 10:48:22;;;;;;;16.67;10.98;;;;;;;;;;5081216;28;20170;-51
2021/01/07 10:50:51;;;;;;;16.33;11.25;;;;;;;;;;5109854;28;20206;-52
2021/01/07 10:53:30;;;;;;;17.30;10.90;;;;;;;;;;5112811;28;20165;-52
2021/01/07 10:56:02;;;;;;;19.85;13.00;;;;;;;;;;5112168;28;20268;-52
2021/01/07 10:58:46;;;;;;;16.90;12.70;;;;;;;;;;5112760;28;20173;-50
2021/01/07 11:01:15;;;;;;;15.85;11.70;;;;;;;;;;5112724;28;20195;-51
2021/01/07 11:03:49;;;;;;;18.13;13.45;;;;;;;;;;5112462;28;20247;-51
2021/01/07 11:06:18;;;;;;;20.65;12.82;;;;;;;;;;5112158;28;20211;-50
2021/01/07 11:08:49;;;;;;;20.35;13.30;;;;;;;;;;5112501;28;20190;-51
2021/01/07 11:11:26;;;;;;;18.30;12.18;;;;;;;;;;5112539;28;20579;-52
2021/01/07 11:14:03;;;;;;;20.05;13.57;;;;;;;;;;5112438;28;20167;-53
2021/01/07 11:16:41;;;;;;;21.13;14.27;;;;;;;;;;5111819;28;20226;-49
2021/01/07 11:19:08;;;;;;;17.38;12.88;;;;;;;;;;5107600;28;20594;-51
2021/01/07 11:21:36;;;;;;;20.15;13.20;;;;;;;;;;5111129;28;20684;-51
2021/01/07 11:24:02;;;;;;;21.25;12.40;;;;;;;;;;5111830;28;20244;-50
2021/01/07 11:26:29;;;;;;;20.00;12.90;;;;;;;;;;5111702;28;20274;-50
2021/01/07 11:28:55;;;;;;;21.27;11.88;;;;;;;;;;5111846;28;20400;-49
2021/01/07 11:31:21;;;;;;;20.27;13.17;;;;;;;;;;5111822;28;20180;-49
2021/01/07 11:33:50;;;;;;;24.10;14.63;;;;;;;;;;5111909;28;20765;-50
2021/01/07 11:36:20;;;;;;;23.95;14.80;;;;;;;;;;5111593;28;20214;-50
2021/01/07 11:38:50;;;;;;;22.15;13.65;;;;;;;;;;5111994;28;20176;-50
2021/01/07 11:41:28;;;;;;;20.30;13.85;;;;;;;;;;5111641;28;20178;-50
2021/01/07 11:43:57;;;;;;;25.00;16.05;;;;;;;;;;5111719;28;20235;-49
2021/01/07 11:46:23;;;;;;;22.77;15.07;;;;;;;;;;5111280;28;20232;-51
2021/01/07 11:48:59;;;;;;;27.02;15.27;;;;;;;;;;5111645;28;20189;-50
2021/01/07 11:51:25;;;;;;;31.08;18.13;;;;;;;;;;5106842;28;20180;-51
2021/01/07 11:53:53;;;;;;;28.25;16.90;;;;;;;;;;5111482;28;20590;-51
2021/01/07 11:56:19;;;;;;;26.70;16.70;;;;;;;;;;5111219;28;20192;-51
2021/01/07 11:58:45;;;;;;;28.00;16.20;;;;;;;;;;5111244;28;20165;-51
2021/01/07 12:01:12;;;;;;;26.90;16.85;;;;;;;;;;5111522;28;20241;-51
2021/01/07 12:03:38;;;;;;;32.08;18.15;;;;;;;;;;5111498;28;20168;-49
2021/01/07 12:06:06;;;;;;;29.83;18.17;;;;;;;;;;5110944;28;20205;-50
2021/01/07 12:08:38;;;;;;;24.55;14.63;;;;;;;;;;5093466;28;20273;-49
2021/01/07 12:11:04;;;;;;;23.67;13.95;;;;;;;;;;5111119;28;20199;-51
2021/01/07 12:13:30;;;;;;;24.58;14.60;;;;;;;;;;5111297;28;20177;-50
2021/01/07 12:15:57;;;;;;;22.57;15.13;;;;;;;;;;5110652;28;20207;-50
2021/01/07 12:18:26;;;;;;;22.73;12.73;;;;;;;;;;5111370;28;21050;-52
2021/01/07 12:20:52;;;;;;;17.42;12.25;;;;;;;;;;5106597;28;20170;-50
2021/01/07 12:23:19;;;;;;;20.77;12.60;;;;;;;;;;5109803;28;20537;-50
2021/01/07 12:25:47;;;;;;;17.88;12.75;;;;;;;;;;5109063;28;20193;-50
2021/01/07 12:28:16;;;;;;;19.27;12.20;;;;;;;;;;5110132;28;20536;-51
2021/01/07 12:30:45;;;;;;;19.67;12.80;;;;;;;;;;5110613;28;20647;-49
2021/01/07 12:33:21;;;;;;;21.00;14.85;;;;;;;;;;5111138;28;20535;-50
2021/01/07 12:36:07;;;;;;;20.17;12.55;;;;;;;;;;5110869;28;20188;-51
2021/01/07 12:38:52;;;;;;;21.40;14.18;;;;;;;;;;5115354;28;20175;-51
2021/01/07 12:41:21;;;;;;;20.88;13.95;;;;;;;;;;5115490;28;20180;-52
2021/01/07 12:43:49;;;;;;;24.13;14.73;;;;;;;;;;5115234;28;20170;-50
2021/01/07 12:46:19;;;;;;;25.50;14.40;;;;;;;;;;5114876;28;20209;-52
2021/01/07 12:48:44;;;;;;;27.77;16.17;;;;;;;;;;5115381;28;20529;-49
2021/01/07 12:51:11;;;;;;;24.73;13.87;;;;;;;;;;5110596;28;20178;-51
2021/01/07 12:53:40;;;;;;;28.52;16.20;;;;;;;;;;5115479;28;20403;-51
2021/01/07 12:56:07;;;;;;;24.35;14.10;;;;;;;;;;5115053;28;20202;-52
2021/01/07 12:58:36;;;;;;;24.42;14.50;;;;;;;;;;5115047;28;20172;-49
2021/01/07 13:01:05;;;;;;;25.63;14.15;;;;;;;;;;5115208;28;20200;-51
2021/01/07 13:03:37;;;;;;;26.17;14.27;;;;;;;;;;5115154;28;20706;-49
2021/01/07 13:06:03;;;;;;;22.75;13.65;;;;;;;;;;5114421;28;20212;-52
2021/01/07 13:08:29;;;;;;;21.52;12.63;;;;;;;;;;5114916;28;20176;-50
2021/01/07 13:10:55;;;;;;;23.90;13.93;;;;;;;;;;5114776;28;20585;-50
2021/01/07 13:13:25;;;;;;;19.52;11.80;;;;;;;;;;5107780;28;20189;-50
2021/01/07 13:15:51;;;;;;;19.48;12.20;;;;;;;;;;5093467;28;20171;-51
2021/01/07 13:18:17;;;;;;;16.97;10.47;;;;;;;;;;5093793;28;20201;-52
2021/01/07 13:20:43;;;;;;;18.20;11.00;;;;;;;;;;5094232;28;20438;-52
2021/01/07 13:23:10;;;;;;;16.27;10.20;;;;;;;;;;5107868;28;20269;-49
2021/01/07 13:25:36;;;;;;;15.30;10.40;;;;;;;;;;5114034;28;20198;-50
2021/01/07 13:28:03;;;;;;;15.35;9.65;;;;;;;;;;5114203;28;20173;-49
2021/01/07 13:30:29;;;;;;;13.15;8.75;;;;;;;;;;5114410;28;20162;-51
2021/01/07 13:32:59;;;;;;;13.85;9.35;;;;;;;;;;5114537;28;20527;-51
2021/01/07 13:35:34;;;;;;;15.63;9.15;;;;;;;;;;5113917;28;20182;-50
2021/01/07 13:38:02;;;;;;;14.88;9.40;;;;;;;;;;5114258;28;20753;-50
2021/01/07 13:40:28;;;;;;;12.60;9.00;;;;;;;;;;5114047;28;20207;-50
2021/01/07 13:42:58;;;;;;;12.50;9.10;;;;;;;;;;5114134;28;20230;-50
2021/01/07 13:45:24;;;;;;;15.63;9.52;;;;;;;;;;5113643;28;20190;-51
2021/01/07 13:47:51;;;;;;;13.77;9.57;;;;;;;;;;5113690;28;20277;-51
2021/01/07 13:50:19;;;;;;;12.30;9.02;;;;;;;;;;5111997;28;20591;-51
2021/01/07 13:52:46;;;;;;;14.43;9.32;;;;;;;;;;5113920;28;20164;-51
2021/01/07 13:55:13;;;;;;;15.40;10.13;;;;;;;;;;5113812;28;20169;-50
2021/01/07 13:57:42;;;;;;;18.70;10.00;;;;;;;;;;5113624;28;20196;-51
2021/01/07 14:00:08;;;;;;;17.27;10.35;;;;;;;;;;5113865;28;20169;-51
2021/01/07 14:02:35;;;;;;;13.15;9.07;;;;;;;;;;5113682;28;20165;-50
2021/01/07 14:05:02;;;;;;;13.85;9.77;;;;;;;;;;5113744;28;20193;-50
2021/01/07 14:07:35;;;;;;;20.80;10.80;;;;;;;;;;5113180;28;20696;-50
2021/01/07 14:10:03;;;;;;;18.08;10.25;;;;;;;;;;5113628;28;20158;-51
2021/01/07 14:12:30;;;;;;;15.45;9.98;;;;;;;;;;5113456;28;20190;-50
2021/01/07 14:14:56;;;;;;;18.48;11.32;;;;;;;;;;5113662;28;20179;-51
2021/01/07 14:17:22;;;;;;;17.97;10.50;;;;;;;;;;5113116;28;20218;-51
2021/01/07 14:19:52;;;;;;;18.60;10.50;;;;;;;;;;5113185;28;20779;-52
2021/01/07 14:22:19;;;;;;;17.35;11.70;;;;;;;;;;5108809;28;20182;-50
2021/01/07 14:24:45;;;;;;;15.02;10.50;;;;;;;;;;5113123;28;20675;-49